sensor_id;sensor_type;location;lat;lon;timestamp;pressure;altitude;pressure_sealevel;temperature;humidity
54172;BME280;40076;52.354;4.970;2022-07-25T00:02:00;101065.38;;;25.88;64.73
54172;BME280;40076;52.354;4.970;2022-07-25T00:04:25;101064.25;;;25.86;64.76
54172;BME280;40076;52.354;4.970;2022-07-25T00:06:51;101061.88;;;25.84;64.76
54172;BME280;40076;52.354;4.970;2022-07-25T00:09:16;101061.50;;;25.82;64.02
54172;BME280;40076;52.354;4.970;2022-07-25T00:11:41;101052.84;;;25.80;63.51
54172;BME280;40076;52.354;4.970;2022-07-25T00:14:07;101048.50;;;25.79;62.95
54172;BME280;40076;52.354;4.970;2022-07-25T00:16:32;101049.34;;;25.76;61.48
54172;BME280;40076;52.354;4.970;2022-07-25T00:18:58;101052.53;;;25.74;60.40
54172;BME280;40076;52.354;4.970;2022-07-25T00:21:23;101051.75;;;25.74;59.76
54172;BME280;40076;52.354;4.970;2022-07-25T00:23:49;101047.00;;;25.74;58.84
54172;BME280;40076;52.354;4.970;2022-07-25T00:26:14;101038.31;;;25.72;58.49
54172;BME280;40076;52.354;4.970;2022-07-25T00:28:41;101031.22;;;25.71;58.17
54172;BME280;40076;52.354;4.970;2022-07-25T00:31:06;101030.09;;;25.69;58.21
54172;BME280;40076;52.354;4.970;2022-07-25T00:33:32;101026.53;;;25.68;57.53
54172;BME280;40076;52.354;4.970;2022-07-25T00:35:57;101015.50;;;25.65;57.52
54172;BME280;40076;52.354;4.970;2022-07-25T00:38:23;101019.13;;;25.62;57.04
54172;BME280;40076;52.354;4.970;2022-07-25T00:40:48;101011.63;;;25.59;56.61
54172;BME280;40076;52.354;4.970;2022-07-25T00:43:13;101006.13;;;25.55;56.66
54172;BME280;40076;52.354;4.970;2022-07-25T00:45:39;100999.44;;;25.53;56.86
54172;BME280;40076;52.354;4.970;2022-07-25T00:48:04;101000.63;;;25.52;56.90
54172;BME280;40076;52.354;4.970;2022-07-25T00:50:31;100998.28;;;25.50;57.38
54172;BME280;40076;52.354;4.970;2022-07-25T00:52:57;100989.59;;;25.48;58.05
54172;BME280;40076;52.354;4.970;2022-07-25T00:55:24;100998.34;;;25.47;58.19
54172;BME280;40076;52.354;4.970;2022-07-25T00:57:49;100990.47;;;25.45;57.96
54172;BME280;40076;52.354;4.970;2022-07-25T01:00:16;100987.72;;;25.42;58.03
54172;BME280;40076;52.354;4.970;2022-07-25T01:02:42;100987.38;;;25.40;57.94
54172;BME280;40076;52.354;4.970;2022-07-25T01:05:08;100979.50;;;25.38;58.20
54172;BME280;40076;52.354;4.970;2022-07-25T01:07:34;100977.50;;;25.38;58.06
54172;BME280;40076;52.354;4.970;2022-07-25T01:10:00;100973.19;;;25.37;58.33
54172;BME280;40076;52.354;4.970;2022-07-25T01:12:25;100962.94;;;25.34;58.53
54172;BME280;40076;52.354;4.970;2022-07-25T01:14:50;100966.56;;;25.31;58.57
54172;BME280;40076;52.354;4.970;2022-07-25T01:17:16;100959.84;;;25.29;58.71
54172;BME280;40076;52.354;4.970;2022-07-25T01:19:44;100961.47;;;25.26;59.00
54172;BME280;40076;52.354;4.970;2022-07-25T01:22:10;100959.88;;;25.25;59.44
54172;BME280;40076;52.354;4.970;2022-07-25T01:24:36;100957.13;;;25.25;59.38
54172;BME280;40076;52.354;4.970;2022-07-25T01:27:03;100961.91;;;25.25;59.89
54172;BME280;40076;52.354;4.970;2022-07-25T01:29:28;100957.56;;;25.24;59.95
54172;BME280;40076;52.354;4.970;2022-07-25T01:31:54;100960.75;;;25.22;60.34
54172;BME280;40076;52.354;4.970;2022-07-25T01:34:19;100958.78;;;25.19;60.34
54172;BME280;40076;52.354;4.970;2022-07-25T01:36:44;100952.53;;;25.15;60.40
54172;BME280;40076;52.354;4.970;2022-07-25T01:39:09;100960.09;;;25.11;60.48
54172;BME280;40076;52.354;4.970;2022-07-25T01:41:35;100962.84;;;25.11;60.56
54172;BME280;40076;52.354;4.970;2022-07-25T01:44:00;100956.19;;;25.09;60.91
54172;BME280;40076;52.354;4.970;2022-07-25T01:46:25;100946.72;;;25.06;61.02
54172;BME280;40076;52.354;4.970;2022-07-25T01:48:51;100934.94;;;25.02;61.27
54172;BME280;40076;52.354;4.970;2022-07-25T01:51:16;100924.72;;;24.99;61.41
54172;BME280;40076;52.354;4.970;2022-07-25T01:53:41;100918.03;;;24.96;61.30
54172;BME280;40076;52.354;4.970;2022-07-25T01:56:07;100922.75;;;24.96;61.76
54172;BME280;40076;52.354;4.970;2022-07-25T01:58:32;100923.59;;;24.93;61.88
54172;BME280;40076;52.354;4.970;2022-07-25T02:00:57;100911.78;;;24.89;62.14
54172;BME280;40076;52.354;4.970;2022-07-25T02:03:23;100907.44;;;24.88;62.19
54172;BME280;40076;52.354;4.970;2022-07-25T02:06:03;100905.09;;;24.86;62.41
54172;BME280;40076;52.354;4.970;2022-07-25T02:08:29;100898.03;;;24.82;62.69
54172;BME280;40076;52.354;4.970;2022-07-25T02:10:55;100897.66;;;24.80;62.87
54172;BME280;40076;52.354;4.970;2022-07-25T02:13:21;100894.56;;;24.78;62.76
54172;BME280;40076;52.354;4.970;2022-07-25T02:15:46;100894.56;;;24.78;62.76
54172;BME280;40076;52.354;4.970;2022-07-25T02:18:12;100883.13;;;24.76;63.19
54172;BME280;40076;52.354;4.970;2022-07-25T02:20:37;100880.78;;;24.74;63.22
54172;BME280;40076;52.354;4.970;2022-07-25T02:23:03;100879.19;;;24.73;63.47
54172;BME280;40076;52.354;4.970;2022-07-25T02:25:29;100875.31;;;24.71;63.48
54172;BME280;40076;52.354;4.970;2022-07-25T02:27:54;100876.50;;;24.70;63.88
54172;BME280;40076;52.354;4.970;2022-07-25T02:30:19;100867.81;;;24.68;64.19
54172;BME280;40076;52.354;4.970;2022-07-25T02:32:45;100860.34;;;24.65;64.40
54172;BME280;40076;52.354;4.970;2022-07-25T02:35:10;100862.78;;;24.63;64.65
54172;BME280;40076;52.354;4.970;2022-07-25T02:37:35;100857.25;;;24.63;64.87
54172;BME280;40076;52.354;4.970;2022-07-25T02:40:01;100862.81;;;24.59;65.23
54172;BME280;40076;52.354;4.970;2022-07-25T02:42:26;100856.50;;;24.58;65.23
54172;BME280;40076;52.354;4.970;2022-07-25T02:44:51;100852.59;;;24.56;65.55
54172;BME280;40076;52.354;4.970;2022-07-25T02:47:17;100850.25;;;24.54;65.59
54172;BME280;40076;52.354;4.970;2022-07-25T02:49:42;100859.72;;;24.53;66.16
54172;BME280;40076;52.354;4.970;2022-07-25T02:52:07;100844.75;;;24.51;66.07
54172;BME280;40076;52.354;4.970;2022-07-25T02:54:33;100843.63;;;24.48;66.22
54172;BME280;40076;52.354;4.970;2022-07-25T02:56:58;100847.19;;;24.45;66.22
54172;BME280;40076;52.354;4.970;2022-07-25T02:59:24;100848.00;;;24.42;66.38
54172;BME280;40076;52.354;4.970;2022-07-25T03:01:49;100842.13;;;24.40;66.34
54172;BME280;40076;52.354;4.970;2022-07-25T03:04:14;100839.00;;;24.38;66.51
54172;BME280;40076;52.354;4.970;2022-07-25T03:06:39;100842.16;;;24.37;66.62
54172;BME280;40076;52.354;4.970;2022-07-25T03:09:05;100838.22;;;24.34;66.77
54172;BME280;40076;52.354;4.970;2022-07-25T03:11:30;100830.00;;;24.31;66.74
54172;BME280;40076;52.354;4.970;2022-07-25T03:13:55;100830.81;;;24.28;66.79
54172;BME280;40076;52.354;4.970;2022-07-25T03:16:21;100827.72;;;24.26;66.78
54172;BME280;40076;52.354;4.970;2022-07-25T03:18:47;100841.91;;;24.24;66.98
54172;BME280;40076;52.354;4.970;2022-07-25T03:21:12;100836.03;;;24.22;67.13
54172;BME280;40076;52.354;4.970;2022-07-25T03:23:37;100819.84;;;24.20;67.16
54172;BME280;40076;52.354;4.970;2022-07-25T03:26:04;100821.44;;;24.18;67.34
54172;BME280;40076;52.354;4.970;2022-07-25T03:28:29;100823.44;;;24.14;67.52
54172;BME280;40076;52.354;4.970;2022-07-25T03:30:55;100829.75;;;24.14;67.54
54172;BME280;40076;52.354;4.970;2022-07-25T03:33:20;100825.06;;;24.11;67.70
54172;BME280;40076;52.354;4.970;2022-07-25T03:35:46;100829.78;;;24.11;68.01
54172;BME280;40076;52.354;4.970;2022-07-25T03:38:11;100828.25;;;24.10;68.09
54172;BME280;40076;52.354;4.970;2022-07-25T03:40:36;100820.00;;;24.06;68.26
54172;BME280;40076;52.354;4.970;2022-07-25T03:43:02;100825.91;;;24.05;68.58
54172;BME280;40076;52.354;4.970;2022-07-25T03:45:27;100828.72;;;24.01;68.56
54172;BME280;40076;52.354;4.970;2022-07-25T03:47:53;100827.56;;;23.99;69.03
54172;BME280;40076;52.354;4.970;2022-07-25T03:50:18;100837.81;;;23.98;68.77
54172;BME280;40076;52.354;4.970;2022-07-25T03:52:43;100832.28;;;23.98;68.88
54172;BME280;40076;52.354;4.970;2022-07-25T03:55:10;100827.19;;;23.97;68.89
54172;BME280;40076;52.354;4.970;2022-07-25T03:57:35;100829.59;;;23.95;68.92
54172;BME280;40076;52.354;4.970;2022-07-25T04:00:01;100828.00;;;23.94;68.64
54172;BME280;40076;52.354;4.970;2022-07-25T04:02:27;100829.59;;;23.91;68.64
54172;BME280;40076;52.354;4.970;2022-07-25T04:04:52;100838.28;;;23.90;68.27
54172;BME280;40076;52.354;4.970;2022-07-25T04:07:17;100835.19;;;23.88;68.16
54172;BME280;40076;52.354;4.970;2022-07-25T04:09:43;100836.38;;;23.87;67.97
54172;BME280;40076;52.354;4.970;2022-07-25T04:12:09;100840.72;;;23.84;67.89
54172;BME280;40076;52.354;4.970;2022-07-25T04:14:34;100841.50;;;23.84;67.81
54172;BME280;40076;52.354;4.970;2022-07-25T04:16:59;100824.56;;;23.82;67.88
54172;BME280;40076;52.354;4.970;2022-07-25T04:19:24;100819.03;;;23.82;67.96
54172;BME280;40076;52.354;4.970;2022-07-25T04:21:50;100834.81;;;23.82;67.76
54172;BME280;40076;52.354;4.970;2022-07-25T04:24:15;100829.31;;;23.82;67.92
54172;BME280;40076;52.354;4.970;2022-07-25T04:26:41;100831.28;;;23.81;67.75
54172;BME280;40076;52.354;4.970;2022-07-25T04:29:06;100825.75;;;23.81;67.82
54172;BME280;40076;52.354;4.970;2022-07-25T04:31:31;100826.94;;;23.80;67.59
54172;BME280;40076;52.354;4.970;2022-07-25T04:33:57;100824.19;;;23.80;67.46
54172;BME280;40076;52.354;4.970;2022-07-25T04:36:22;100825.41;;;23.79;67.26
54172;BME280;40076;52.354;4.970;2022-07-25T04:38:47;100817.13;;;23.79;66.78
54172;BME280;40076;52.354;4.970;2022-07-25T04:41:13;100817.91;;;23.80;66.87
54172;BME280;40076;52.354;4.970;2022-07-25T04:43:38;100816.69;;;23.81;66.03
54172;BME280;40076;52.354;4.970;2022-07-25T04:46:03;100806.88;;;23.80;65.83
54172;BME280;40076;52.354;4.970;2022-07-25T04:48:29;100810.38;;;23.80;65.39
54172;BME280;40076;52.354;4.970;2022-07-25T04:50:54;100811.59;;;23.79;65.14
54172;BME280;40076;52.354;4.970;2022-07-25T04:53:19;100808.41;;;23.81;64.74
54172;BME280;40076;52.354;4.970;2022-07-25T04:55:45;100808.41;;;23.81;64.12
54172;BME280;40076;52.354;4.970;2022-07-25T04:58:10;100805.31;;;23.79;63.55
54172;BME280;40076;52.354;4.970;2022-07-25T05:00:36;100795.84;;;23.76;62.99
54172;BME280;40076;52.354;4.970;2022-07-25T05:03:01;100801.38;;;23.76;62.78
54172;BME280;40076;52.354;4.970;2022-07-25T05:05:26;100808.09;;;23.75;62.42
54172;BME280;40076;52.354;4.970;2022-07-25T05:07:56;100809.28;;;23.74;62.17
54172;BME280;40076;52.354;4.970;2022-07-25T05:10:21;100811.25;;;23.74;62.00
54172;BME280;40076;52.354;4.970;2022-07-25T05:12:47;100804.94;;;23.73;61.82
54172;BME280;40076;52.354;4.970;2022-07-25T05:15:12;100801.00;;;23.74;61.46
54172;BME280;40076;52.354;4.970;2022-07-25T05:17:37;100802.56;;;23.75;61.07
54172;BME280;40076;52.354;4.970;2022-07-25T05:20:03;100812.03;;;23.74;60.98
54172;BME280;40076;52.354;4.970;2022-07-25T05:22:28;100810.84;;;23.75;60.87
54172;BME280;40076;52.354;4.970;2022-07-25T05:24:54;100811.63;;;23.76;60.64
54172;BME280;40076;52.354;4.970;2022-07-25T05:27:19;100806.91;;;23.76;60.61
54172;BME280;40076;52.354;4.970;2022-07-25T05:29:44;100801.75;;;23.78;60.35
54172;BME280;40076;52.354;4.970;2022-07-25T05:32:10;100801.75;;;23.78;60.38
54172;BME280;40076;52.354;4.970;2022-07-25T05:34:35;100815.91;;;23.80;59.68
54172;BME280;40076;52.354;4.970;2022-07-25T05:37:00;100813.16;;;23.80;59.78
54172;BME280;40076;52.354;4.970;2022-07-25T05:39:26;100810.78;;;23.82;59.66
54172;BME280;40076;52.354;4.970;2022-07-25T05:41:51;100814.28;;;23.87;59.53
54172;BME280;40076;52.354;4.970;2022-07-25T05:44:16;100817.41;;;23.89;59.62
54172;BME280;40076;52.354;4.970;2022-07-25T05:46:41;100809.50;;;23.91;59.29
54172;BME280;40076;52.354;4.970;2022-07-25T05:49:07;100798.84;;;23.93;59.18
54172;BME280;40076;52.354;4.970;2022-07-25T05:51:32;100801.19;;;23.94;58.88
54172;BME280;40076;52.354;4.970;2022-07-25T05:53:57;100801.56;;;23.96;58.79
54172;BME280;40076;52.354;4.970;2022-07-25T05:56:23;100808.25;;;23.99;58.59
54172;BME280;40076;52.354;4.970;2022-07-25T05:58:48;100810.59;;;24.00;58.08
54172;BME280;40076;52.354;4.970;2022-07-25T06:01:14;100816.91;;;24.01;58.17
54172;BME280;40076;52.354;4.970;2022-07-25T06:03:40;100820.03;;;24.03;58.15
54172;BME280;40076;52.354;4.970;2022-07-25T06:06:07;100810.91;;;24.06;58.14
54172;BME280;40076;52.354;4.970;2022-07-25T06:08:36;100803.03;;;24.08;58.12
54172;BME280;40076;52.354;4.970;2022-07-25T06:11:02;100801.84;;;24.09;57.88
54172;BME280;40076;52.354;4.970;2022-07-25T06:13:29;100797.88;;;24.10;58.10
54172;BME280;40076;52.354;4.970;2022-07-25T06:15:54;100809.72;;;24.10;57.98
54172;BME280;40076;52.354;4.970;2022-07-25T06:18:19;100805.72;;;24.11;57.93
54172;BME280;40076;52.354;4.970;2022-07-25T06:20:45;100821.09;;;24.12;58.19
54172;BME280;40076;52.354;4.970;2022-07-25T06:23:10;100816.38;;;24.13;58.30
54172;BME280;40076;52.354;4.970;2022-07-25T06:25:35;100833.75;;;24.10;57.31
54172;BME280;40076;52.354;4.970;2022-07-25T06:28:00;100836.53;;;24.10;56.87
54172;BME280;40076;52.354;4.970;2022-07-25T06:30:26;100823.94;;;24.05;57.30
54172;BME280;40076;52.354;4.970;2022-07-25T06:32:51;100809.00;;;24.03;57.18
54172;BME280;40076;52.354;4.970;2022-07-25T06:35:17;100807.06;;;24.00;57.50
54172;BME280;40076;52.354;4.970;2022-07-25T06:37:43;100803.53;;;23.96;57.69
54172;BME280;40076;52.354;4.970;2022-07-25T06:40:08;100801.19;;;23.94;58.10
54172;BME280;40076;52.354;4.970;2022-07-25T06:42:41;100811.06;;;23.92;58.58
54172;BME280;40076;52.354;4.970;2022-07-25T06:45:07;100828.81;;;23.91;58.47
54172;BME280;40076;52.354;4.970;2022-07-25T06:47:37;100817.06;;;23.87;59.29
54172;BME280;40076;52.354;4.970;2022-07-25T06:50:04;100829.28;;;23.85;59.23
54172;BME280;40076;52.354;4.970;2022-07-25T06:52:29;100824.94;;;23.84;59.23
54172;BME280;40076;52.354;4.970;2022-07-25T06:54:55;100797.34;;;23.84;59.43
54172;BME280;40076;52.354;4.970;2022-07-25T06:57:20;100818.25;;;23.82;59.71
54172;BME280;40076;52.354;4.970;2022-07-25T06:59:45;100825.75;;;23.81;59.73
54172;BME280;40076;52.354;4.970;2022-07-25T07:02:11;100822.22;;;23.81;60.21
54172;BME280;40076;52.354;4.970;2022-07-25T07:04:37;100827.72;;;23.81;60.73
54172;BME280;40076;52.354;4.970;2022-07-25T07:07:02;100824.19;;;23.80;61.06
54172;BME280;40076;52.354;4.970;2022-07-25T07:09:27;100827.38;;;23.79;61.31
54172;BME280;40076;52.354;4.970;2022-07-25T07:11:53;100821.47;;;23.77;62.08
54172;BME280;40076;52.354;4.970;2022-07-25T07:14:18;100825.47;;;23.72;62.56
54172;BME280;40076;52.354;4.970;2022-07-25T07:16:43;100817.59;;;23.71;63.15
54172;BME280;40076;52.354;4.970;2022-07-25T07:19:09;100834.94;;;23.71;63.87
54172;BME280;40076;52.354;4.970;2022-07-25T07:21:39;100832.19;;;23.68;64.41
54172;BME280;40076;52.354;4.970;2022-07-25T07:24:04;100825.94;;;23.64;64.81
54172;BME280;40076;52.354;4.970;2022-07-25T07:26:29;100840.53;;;23.64;65.38
54172;BME280;40076;52.354;4.970;2022-07-25T07:28:55;100831.84;;;23.62;65.81
54172;BME280;40076;52.354;4.970;2022-07-25T07:31:20;100842.13;;;23.58;66.52
54172;BME280;40076;52.354;4.970;2022-07-25T07:33:45;100841.78;;;23.56;66.88
54172;BME280;40076;52.354;4.970;2022-07-25T07:36:11;100836.66;;;23.51;67.03
54172;BME280;40076;52.354;4.970;2022-07-25T07:38:36;100826.06;;;23.50;67.05
54172;BME280;40076;52.354;4.970;2022-07-25T07:41:01;100835.91;;;23.47;67.40
54172;BME280;40076;52.354;4.970;2022-07-25T07:43:27;100837.09;;;23.46;67.94
54172;BME280;40076;52.354;4.970;2022-07-25T07:45:56;100844.97;;;23.44;68.31
54172;BME280;40076;52.354;4.970;2022-07-25T07:48:24;100835.56;;;23.41;68.49
54172;BME280;40076;52.354;4.970;2022-07-25T07:50:50;100810.34;;;23.39;69.05
54172;BME280;40076;52.354;4.970;2022-07-25T07:53:15;100828.47;;;23.37;69.25
54172;BME280;40076;52.354;4.970;2022-07-25T07:55:49;100839.56;;;23.33;69.70
54172;BME280;40076;52.354;4.970;2022-07-25T07:58:19;100838.78;;;23.33;69.97
54172;BME280;40076;52.354;4.970;2022-07-25T08:00:47;100841.91;;;23.31;70.33
54172;BME280;40076;52.354;4.970;2022-07-25T08:03:17;100835.63;;;23.31;70.68
54172;BME280;40076;52.354;4.970;2022-07-25T08:05:43;100836.41;;;23.31;70.91
54172;BME280;40076;52.354;4.970;2022-07-25T08:08:11;100832.47;;;23.32;70.58
54172;BME280;40076;52.354;4.970;2022-07-25T08:10:38;100826.13;;;23.35;70.87
54172;BME280;40076;52.354;4.970;2022-07-25T08:13:18;100820.59;;;23.39;70.95
54172;BME280;40076;52.354;4.970;2022-07-25T08:15:46;100818.19;;;23.44;70.92
54172;BME280;40076;52.354;4.970;2022-07-25T08:18:12;100824.88;;;23.47;70.64
54172;BME280;40076;52.354;4.970;2022-07-25T08:20:37;100828.41;;;23.47;70.38
54172;BME280;40076;52.354;4.970;2022-07-25T08:23:03;100826.44;;;23.44;69.81
54172;BME280;40076;52.354;4.970;2022-07-25T08:25:28;100825.25;;;23.45;69.73
54172;BME280;40076;52.354;4.970;2022-07-25T08:27:54;100818.56;;;23.43;69.29
54172;BME280;40076;52.354;4.970;2022-07-25T08:30:20;100824.88;;;23.43;69.43
54172;BME280;40076;52.354;4.970;2022-07-25T08:32:53;100818.19;;;23.44;69.56
54172;BME280;40076;52.354;4.970;2022-07-25T08:35:20;100812.25;;;23.46;69.71
54172;BME280;40076;52.354;4.970;2022-07-25T08:37:47;100806.75;;;23.46;70.08
54172;BME280;40076;52.354;4.970;2022-07-25T08:40:14;100817.78;;;23.50;69.83
54172;BME280;40076;52.354;4.970;2022-07-25T08:42:40;100813.03;;;23.50;69.59
54172;BME280;40076;52.354;4.970;2022-07-25T08:45:08;100822.88;;;23.51;69.18
54172;BME280;40076;52.354;4.970;2022-07-25T08:47:34;100837.44;;;23.55;68.59
54172;BME280;40076;52.354;4.970;2022-07-25T08:50:05;100842.56;;;23.53;67.81
54172;BME280;40076;52.354;4.970;2022-07-25T08:52:32;100851.22;;;23.55;67.33
54172;BME280;40076;52.354;4.970;2022-07-25T08:55:02;100862.22;;;23.59;67.44
54172;BME280;40076;52.354;4.970;2022-07-25T08:57:28;100866.88;;;23.65;67.08
54172;BME280;40076;52.354;4.970;2022-07-25T08:59:57;100860.56;;;23.68;66.68
54172;BME280;40076;52.354;4.970;2022-07-25T09:02:25;100850.31;;;23.72;66.40
54172;BME280;40076;52.354;4.970;2022-07-25T09:04:51;100840.00;;;23.76;66.28
54172;BME280;40076;52.354;4.970;2022-07-25T09:07:16;100843.50;;;23.80;65.77
54172;BME280;40076;52.354;4.970;2022-07-25T09:09:41;100844.22;;;23.88;65.46
54172;BME280;40076;52.354;4.970;2022-07-25T09:12:08;100843.00;;;23.93;65.51
54172;BME280;40076;52.354;4.970;2022-07-25T09:14:41;100840.56;;;23.98;65.32
54172;BME280;40076;52.354;4.970;2022-07-25T09:17:07;100842.13;;;24.03;65.11
54172;BME280;40076;52.354;4.970;2022-07-25T09:19:33;100843.25;;;24.05;64.41
54172;BME280;40076;52.354;4.970;2022-07-25T09:21:59;100845.63;;;24.07;64.18
54172;BME280;40076;52.354;4.970;2022-07-25T09:24:25;100843.25;;;24.09;63.78
54172;BME280;40076;52.354;4.970;2022-07-25T09:26:53;100840.47;;;24.09;63.66
54172;BME280;40076;52.354;4.970;2022-07-25T09:31:49;100859.81;;;24.05;63.55
54172;BME280;40076;52.354;4.970;2022-07-25T09:34:38;100861.00;;;24.04;63.49
54172;BME280;40076;52.354;4.970;2022-07-25T09:37:10;100874.47;;;23.99;63.28
54172;BME280;40076;52.354;4.970;2022-07-25T09:42:18;100877.72;;;23.90;63.67
54172;BME280;40076;52.354;4.970;2022-07-25T09:44:55;100877.75;;;23.87;63.81
54172;BME280;40076;52.354;4.970;2022-07-25T09:47:21;100890.78;;;23.82;63.84
54172;BME280;40076;52.354;4.970;2022-07-25T09:49:46;100887.28;;;23.78;63.73
54172;BME280;40076;52.354;4.970;2022-07-25T09:52:12;100897.13;;;23.79;63.91
54172;BME280;40076;52.354;4.970;2022-07-25T09:54:38;100909.75;;;23.77;63.76
54172;BME280;40076;52.354;4.970;2022-07-25T09:57:04;100896.75;;;23.77;63.74
54172;BME280;40076;52.354;4.970;2022-07-25T09:59:29;100888.09;;;23.75;63.05
54172;BME280;40076;52.354;4.970;2022-07-25T10:02:11;100891.25;;;23.74;63.31
54172;BME280;40076;52.354;4.970;2022-07-25T10:05:29;100903.84;;;23.78;62.98
54172;BME280;40076;52.354;4.970;2022-07-25T10:07:27;100904.59;;;23.82;63.46
54172;BME280;40076;52.354;4.970;2022-07-25T10:09:54;100913.63;;;23.87;63.38
54172;BME280;40076;52.354;4.970;2022-07-25T10:12:21;100908.44;;;23.92;63.24
54172;BME280;40076;52.354;4.970;2022-07-25T10:17:32;100898.44;;;24.09;62.60
54172;BME280;40076;52.354;4.970;2022-07-25T10:19:57;100898.78;;;24.14;61.68
54172;BME280;40076;52.354;4.970;2022-07-25T10:22:44;100910.56;;;24.22;61.64
54172;BME280;40076;52.354;4.970;2022-07-25T10:25:16;100907.34;;;24.27;60.52
54172;BME280;40076;52.354;4.970;2022-07-25T10:27:43;100908.97;;;24.25;59.83
54172;BME280;40076;52.354;4.970;2022-07-25T10:30:26;100923.19;;;24.23;59.37
54172;BME280;40076;52.354;4.970;2022-07-25T10:33:03;100919.63;;;24.22;59.54
54172;BME280;40076;52.354;4.970;2022-07-25T10:35:29;100910.97;;;24.20;59.37
54172;BME280;40076;52.354;4.970;2022-07-25T10:37:57;100914.91;;;24.23;59.60
54172;BME280;40076;52.354;4.970;2022-07-25T10:40:27;100925.53;;;24.25;59.42
54172;BME280;40076;52.354;4.970;2022-07-25T10:43:05;100927.53;;;24.20;59.02
54172;BME280;40076;52.354;4.970;2022-07-25T10:46:01;100933.06;;;24.20;59.33
54172;BME280;40076;52.354;4.970;2022-07-25T10:48:28;100927.91;;;24.19;59.13
54172;BME280;40076;52.354;4.970;2022-07-25T10:51:03;100929.94;;;24.15;59.01
54172;BME280;40076;52.354;4.970;2022-07-25T10:56:17;100942.22;;;24.10;58.31
54172;BME280;40076;52.354;4.970;2022-07-25T10:58:50;100946.97;;;24.06;58.27
54172;BME280;40076;52.354;4.970;2022-07-25T11:01:31;100942.69;;;24.02;58.35
54172;BME280;40076;52.354;4.970;2022-07-25T11:04:00;100944.66;;;24.01;58.60
54172;BME280;40076;52.354;4.970;2022-07-25T11:06:37;100936.72;;;24.03;58.86
54172;BME280;40076;52.354;4.970;2022-07-25T11:09:12;100937.50;;;24.07;58.65
54172;BME280;40076;52.354;4.970;2022-07-25T11:11:39;100935.13;;;24.09;57.81
54172;BME280;40076;52.354;4.970;2022-07-25T11:14:24;100939.03;;;24.12;57.37
54172;BME280;40076;52.354;4.970;2022-07-25T11:16:53;100939.81;;;24.12;56.82
54172;BME280;40076;52.354;4.970;2022-07-25T11:19:22;100943.75;;;24.11;56.62
54172;BME280;40076;52.354;4.970;2022-07-25T11:21:53;100950.06;;;24.12;55.89
54172;BME280;40076;52.354;4.970;2022-07-25T11:24:20;100942.16;;;24.14;56.32
54172;BME280;40076;52.354;4.970;2022-07-25T11:26:51;100948.44;;;24.18;56.42
54172;BME280;40076;52.354;4.970;2022-07-25T11:29:25;100944.09;;;24.20;56.52
54172;BME280;40076;52.354;4.970;2022-07-25T11:31:55;100939.69;;;24.27;56.54
54172;BME280;40076;52.354;4.970;2022-07-25T11:34:24;100938.50;;;24.31;56.45
54172;BME280;40076;52.354;4.970;2022-07-25T11:36:51;100949.47;;;24.38;56.19
54172;BME280;40076;52.354;4.970;2022-07-25T11:39:16;100948.28;;;24.39;55.50
54172;BME280;40076;52.354;4.970;2022-07-25T11:41:42;100946.66;;;24.42;54.73
54172;BME280;40076;52.354;4.970;2022-07-25T11:44:07;100946.25;;;24.43;54.01
54172;BME280;40076;52.354;4.970;2022-07-25T11:46:43;100945.50;;;24.39;52.27
54172;BME280;40076;52.354;4.970;2022-07-25T11:49:08;100954.91;;;24.45;53.21
54172;BME280;40076;52.354;4.970;2022-07-25T11:51:37;100957.66;;;24.45;52.87
54172;BME280;40076;52.354;4.970;2022-07-25T11:54:10;100956.47;;;24.46;52.89
54172;BME280;40076;52.354;4.970;2022-07-25T11:56:37;100958.47;;;24.46;52.20
54172;BME280;40076;52.354;4.970;2022-07-25T11:59:03;100969.97;;;24.41;52.39
54172;BME280;40076;52.354;4.970;2022-07-25T12:01:36;100970.38;;;24.39;52.62
54172;BME280;40076;52.354;4.970;2022-07-25T12:04:21;100966.06;;;24.35;52.95
54172;BME280;40076;52.354;4.970;2022-07-25T12:06:47;100969.59;;;24.35;53.20
54172;BME280;40076;52.354;4.970;2022-07-25T12:09:18;100979.06;;;24.34;53.14
54172;BME280;40076;52.354;4.970;2022-07-25T12:11:44;100973.59;;;24.31;52.85
54172;BME280;40076;52.354;4.970;2022-07-25T12:14:10;100981.09;;;24.30;53.18
54172;BME280;40076;52.354;4.970;2022-07-25T12:16:36;100978.00;;;24.25;53.69
54172;BME280;40076;52.354;4.970;2022-07-25T12:19:04;100990.63;;;24.22;53.82
54172;BME280;40076;52.354;4.970;2022-07-25T12:21:32;100992.63;;;24.18;54.05
54172;BME280;40076;52.354;4.970;2022-07-25T12:23:57;100981.59;;;24.14;53.03
54172;BME280;40076;52.354;4.970;2022-07-25T12:26:23;100983.97;;;24.12;53.03
54172;BME280;40076;52.354;4.970;2022-07-25T12:28:48;100981.63;;;24.11;52.09
54172;BME280;40076;52.354;4.970;2022-07-25T12:31:13;100973.78;;;24.09;51.77
54172;BME280;40076;52.354;4.970;2022-07-25T12:33:39;100974.56;;;24.10;51.67
54172;BME280;40076;52.354;4.970;2022-07-25T12:36:04;100979.25;;;24.13;51.67
54172;BME280;40076;52.354;4.970;2022-07-25T12:38:30;100961.47;;;24.17;51.76
54172;BME280;40076;52.354;4.970;2022-07-25T12:40:55;100965.78;;;24.22;51.30
54172;BME280;40076;52.354;4.970;2022-07-25T12:43:21;100977.56;;;24.26;51.50
54172;BME280;40076;52.354;4.970;2022-07-25T12:45:46;100977.16;;;24.28;51.48
54172;BME280;40076;52.354;4.970;2022-07-25T12:48:12;100985.03;;;24.33;51.58
54172;BME280;40076;52.354;4.970;2022-07-25T12:50:39;100982.63;;;24.35;51.51
54172;BME280;40076;52.354;4.970;2022-07-25T12:53:04;100983.41;;;24.35;51.87
54172;BME280;40076;52.354;4.970;2022-07-25T12:55:30;100987.41;;;24.31;51.86
54172;BME280;40076;52.354;4.970;2022-07-25T12:57:55;100986.63;;;24.30;52.16
54172;BME280;40076;52.354;4.970;2022-07-25T13:00:21;100983.06;;;24.30;52.52